Sandy Valley, Nevada
Current Conditions -  °F | °C
As of 2:56 PM on Tuesday 27 Jan 2015 (Local Time) from KHND Reporting Station
Few Clouds Few Clouds  
Wind Chill: 61°   Ceiling: Unl
Heat Index: 61°   Visibility: 10mi
Dew Point: 50°   Wind: 7mph
Humidity: 67%   Direction: 60°ENE
Pressure: 30.21"   Gusts: NA
Location:  35.8439°N, 115.475°W
Report Text: KHND 272256Z 06006KT 10SM FEW031 16/10 A3021 RMK AO2 SLP225 T01610100
Loading
Personal Weather Stations






























Interactive Weather Map New forecast layout! Learn more

10-Day Weather Forecast

Advertisements
Track Severe Weather on mobile